Dunkirk, New York
Current Conditions -  °F | °C
As of 11:00 PM on Thursday 27 Nov 2014 (Local Time) from KDKK Reporting Station
Light Snow Light Snow  
Wind Chill: 18°   Ceiling: 1400
Heat Index: 30°   Visibility: 5mi
Dew Point: 27°   Wind: 20mph
Humidity: 88%   Direction: 320°NW
Pressure: 30.14"   Gusts: 28mph
Location:  42.49°N, 79.34°W
Report Text: KDKK 280400Z AUTO 32017G24KT 5SM -SN BR FEW006 OVC014 M01/M03 A3014 RMK AO2 P0000 T10111028
Loading
Personal Weather Stations






























Interactive Weather Map New forecast layout! Learn more

10-Day Weather Forecast

Advertisements
Track Severe Weather on mobile